Terminal Aerodrome Forecast
Issued by NWS St Louis, MO

Home | Current Version | Previous Version | Text Only | Print | Product List | Glossary On
Versions: 1 2 3 4 5 6 7 8 9 10 11 12 13 14 15 16 17 18 19 20 21 22 23 24 25 26
070
FTUS43 KLSX 232339
TAFSTL
TAF
KSTL 232339Z 2400/2506 14014KT P6SM SKC
     FM240300 16013KT P6SM SKC WS016/19045KT
     FM241400 18016G24KT P6SM BKN035
     FM250200 16012G20KT 3SM TSRA OVC025CB=

USA.gov is the U.S. government's official web portal to all federal, state and local government web resources and services.